sensor_id;sensor_type;location;lat;lon;timestamp;P1;durP1;ratioP1;P2;durP2;ratioP2
1785;SDS011;890;48.158;11.540;2024-01-06T00:01:44;953.07;;;887.87;;
1785;SDS011;890;48.158;11.540;2024-01-06T00:04:10;1179.90;;;999.90;;
1785;SDS011;890;48.158;11.540;2024-01-06T00:06:37;1042.43;;;954.47;;
1785;SDS011;890;48.158;11.540;2024-01-06T00:09:02;1051.40;;;961.10;;
1785;SDS011;890;48.158;11.540;2024-01-06T00:11:29;900.20;;;834.50;;
1785;SDS011;890;48.158;11.540;2024-01-06T00:13:54;1102.47;;;999.90;;
1785;SDS011;890;48.158;11.540;2024-01-06T00:16:20;1214.20;;;999.90;;
1785;SDS011;890;48.158;11.540;2024-01-06T00:18:47;769.37;;;704.40;;
1785;SDS011;890;48.158;11.540;2024-01-06T00:21:13;612.10;;;560.13;;
1785;SDS011;890;48.158;11.540;2024-01-06T00:23:40;783.80;;;718.20;;
1785;SDS011;890;48.158;11.540;2024-01-06T00:26:06;959.73;;;893.30;;
1785;SDS011;890;48.158;11.540;2024-01-06T00:28:33;1145.13;;;999.90;;
1785;SDS011;890;48.158;11.540;2024-01-06T00:31:00;1103.20;;;994.40;;
1785;SDS011;890;48.158;11.540;2024-01-06T00:33:26;1159.37;;;999.90;;
1785;SDS011;890;48.158;11.540;2024-01-06T00:35:51;1144.87;;;999.90;;
1785;SDS011;890;48.158;11.540;2024-01-06T00:38:17;1096.70;;;977.33;;
1785;SDS011;890;48.158;11.540;2024-01-06T00:40:43;970.07;;;897.83;;
1785;SDS011;890;48.158;11.540;2024-01-06T00:43:08;1170.40;;;999.90;;
1785;SDS011;890;48.158;11.540;2024-01-06T00:45:34;942.33;;;876.03;;
1785;SDS011;890;48.158;11.540;2024-01-06T00:48:00;965.47;;;895.50;;
1785;SDS011;890;48.158;11.540;2024-01-06T00:50:25;958.90;;;886.97;;
1785;SDS011;890;48.158;11.540;2024-01-06T00:52:51;1056.13;;;963.30;;
1785;SDS011;890;48.158;11.540;2024-01-06T00:55:20;810.93;;;742.93;;
1785;SDS011;890;48.158;11.540;2024-01-06T00:57:46;773.77;;;711.00;;
1785;SDS011;890;48.158;11.540;2024-01-06T01:00:12;1218.30;;;999.90;;
1785;SDS011;890;48.158;11.540;2024-01-06T01:02:38;1153.53;;;999.90;;
1785;SDS011;890;48.158;11.540;2024-01-06T01:05:04;806.23;;;741.87;;
1785;SDS011;890;48.158;11.540;2024-01-06T01:07:32;785.57;;;719.83;;
1785;SDS011;890;48.158;11.540;2024-01-06T01:09:59;795.37;;;731.97;;
1785;SDS011;890;48.158;11.540;2024-01-06T01:12:25;771.13;;;707.13;;
1785;SDS011;890;48.158;11.540;2024-01-06T01:14:51;1019.80;;;936.80;;
1785;SDS011;890;48.158;11.540;2024-01-06T01:17:19;810.47;;;744.73;;
1785;SDS011;890;48.158;11.540;2024-01-06T01:19:45;1014.63;;;938.33;;
1785;SDS011;890;48.158;11.540;2024-01-06T01:22:10;1093.70;;;976.53;;
1785;SDS011;890;48.158;11.540;2024-01-06T01:24:38;996.10;;;911.93;;
1785;SDS011;890;48.158;11.540;2024-01-06T01:27:04;944.37;;;879.87;;
1785;SDS011;890;48.158;11.540;2024-01-06T01:29:30;1241.00;;;999.90;;
1785;SDS011;890;48.158;11.540;2024-01-06T01:31:57;792.10;;;725.70;;
1785;SDS011;890;48.158;11.540;2024-01-06T01:34:25;457.77;;;409.83;;
1785;SDS011;890;48.158;11.540;2024-01-06T01:36:50;752.03;;;693.77;;
1785;SDS011;890;48.158;11.540;2024-01-06T01:39:17;787.70;;;723.03;;
1785;SDS011;890;48.158;11.540;2024-01-06T01:41:43;760.60;;;697.30;;
1785;SDS011;890;48.158;11.540;2024-01-06T01:44:09;746.17;;;682.13;;
1785;SDS011;890;48.158;11.540;2024-01-06T01:46:35;764.87;;;702.37;;
1785;SDS011;890;48.158;11.540;2024-01-06T01:49:03;784.03;;;718.67;;
1785;SDS011;890;48.158;11.540;2024-01-06T01:51:30;842.47;;;778.27;;
1785;SDS011;890;48.158;11.540;2024-01-06T01:53:58;795.55;;;734.17;;
1785;SDS011;890;48.158;11.540;2024-01-06T01:56:30;733.45;;;673.70;;
1785;SDS011;890;48.158;11.540;2024-01-06T01:58:59;752.50;;;690.33;;
1785;SDS011;890;48.158;11.540;2024-01-06T02:01:30;752.57;;;693.43;;
1785;SDS011;890;48.158;11.540;2024-01-06T02:03:56;722.40;;;661.40;;
1785;SDS011;890;48.158;11.540;2024-01-06T02:06:23;720.83;;;661.07;;
1785;SDS011;890;48.158;11.540;2024-01-06T02:08:50;771.03;;;709.53;;
1785;SDS011;890;48.158;11.540;2024-01-06T02:11:18;764.67;;;703.77;;
1785;SDS011;890;48.158;11.540;2024-01-06T02:13:43;809.33;;;746.93;;
1785;SDS011;890;48.158;11.540;2024-01-06T02:16:12;1186.17;;;999.90;;
1785;SDS011;890;48.158;11.540;2024-01-06T02:18:37;547.50;;;494.87;;
1785;SDS011;890;48.158;11.540;2024-01-06T02:21:03;1184.27;;;999.90;;
1785;SDS011;890;48.158;11.540;2024-01-06T02:23:30;1226.93;;;999.90;;
1785;SDS011;890;48.158;11.540;2024-01-06T02:25:56;1109.00;;;999.90;;
1785;SDS011;890;48.158;11.540;2024-01-06T02:28:22;1069.93;;;993.10;;
1785;SDS011;890;48.158;11.540;2024-01-06T02:30:48;543.13;;;491.70;;
1785;SDS011;890;48.158;11.540;2024-01-06T02:33:14;991.60;;;922.40;;
1785;SDS011;890;48.158;11.540;2024-01-06T02:35:39;1163.97;;;999.90;;
1785;SDS011;890;48.158;11.540;2024-01-06T02:38:06;1106.57;;;984.73;;
1785;SDS011;890;48.158;11.540;2024-01-06T02:40:32;1223.47;;;999.90;;
1785;SDS011;890;48.158;11.540;2024-01-06T02:42:58;1086.67;;;999.47;;
1785;SDS011;890;48.158;11.540;2024-01-06T02:45:24;984.97;;;916.80;;
1785;SDS011;890;48.158;11.540;2024-01-06T02:47:49;919.77;;;853.93;;
1785;SDS011;890;48.158;11.540;2024-01-06T02:50:15;1115.40;;;999.90;;
1785;SDS011;890;48.158;11.540;2024-01-06T02:52:41;1091.10;;;999.90;;
1785;SDS011;890;48.158;11.540;2024-01-06T02:55:06;1116.00;;;999.90;;
1785;SDS011;890;48.158;11.540;2024-01-06T02:57:33;1199.73;;;999.90;;
1785;SDS011;890;48.158;11.540;2024-01-06T03:00:01;1172.67;;;999.90;;
1785;SDS011;890;48.158;11.540;2024-01-06T03:02:28;1200.80;;;999.90;;
1785;SDS011;890;48.158;11.540;2024-01-06T03:04:54;1199.63;;;999.90;;
1785;SDS011;890;48.158;11.540;2024-01-06T03:07:20;1015.17;;;946.55;;
1785;SDS011;890;48.158;11.540;2024-01-06T03:09:46;1031.90;;;948.90;;
1785;SDS011;890;48.158;11.540;2024-01-06T03:12:11;1105.80;;;992.20;;
1785;SDS011;890;48.158;11.540;2024-01-06T03:14:38;970.33;;;903.83;;
1785;SDS011;890;48.158;11.540;2024-01-06T03:17:05;1083.23;;;983.73;;
1785;SDS011;890;48.158;11.540;2024-01-06T03:19:31;937.60;;;870.23;;
1785;SDS011;890;48.158;11.540;2024-01-06T03:21:57;701.73;;;642.57;;
1785;SDS011;890;48.158;11.540;2024-01-06T03:24:23;727.77;;;670.60;;
1785;SDS011;890;48.158;11.540;2024-01-06T03:26:51;682.10;;;624.20;;
1785;SDS011;890;48.158;11.540;2024-01-06T03:29:17;516.45;;;453.17;;
1785;SDS011;890;48.158;11.540;2024-01-06T03:31:43;665.33;;;608.10;;
1785;SDS011;890;48.158;11.540;2024-01-06T03:34:12;755.13;;;695.17;;
1785;SDS011;890;48.158;11.540;2024-01-06T03:36:38;652.17;;;595.20;;
1785;SDS011;890;48.158;11.540;2024-01-06T03:39:06;705.90;;;644.73;;
1785;SDS011;890;48.158;11.540;2024-01-06T03:41:32;694.37;;;634.27;;
1785;SDS011;890;48.158;11.540;2024-01-06T03:43:58;1124.03;;;999.90;;
1785;SDS011;890;48.158;11.540;2024-01-06T03:46:24;1060.87;;;977.40;;
1785;SDS011;890;48.158;11.540;2024-01-06T03:48:50;787.17;;;728.53;;
1785;SDS011;890;48.158;11.540;2024-01-06T03:51:15;1033.77;;;963.90;;
1785;SDS011;890;48.158;11.540;2024-01-06T03:53:42;855.80;;;792.78;;
1785;SDS011;890;48.158;11.540;2024-01-06T03:56:08;879.83;;;815.97;;
1785;SDS011;890;48.158;11.540;2024-01-06T03:58:34;1062.37;;;989.50;;
1785;SDS011;890;48.158;11.540;2024-01-06T04:01:00;1027.57;;;941.17;;
1785;SDS011;890;48.158;11.540;2024-01-06T04:03:26;1011.10;;;940.23;;
1785;SDS011;890;48.158;11.540;2024-01-06T04:05:51;1017.17;;;948.23;;
1785;SDS011;890;48.158;11.540;2024-01-06T04:08:17;1046.07;;;968.27;;
1785;SDS011;890;48.158;11.540;2024-01-06T04:10:44;1154.20;;;999.90;;
1785;SDS011;890;48.158;11.540;2024-01-06T04:13:10;1130.43;;;999.90;;
1785;SDS011;890;48.158;11.540;2024-01-06T04:15:36;1045.65;;;967.50;;
1785;SDS011;890;48.158;11.540;2024-01-06T04:18:03;1121.93;;;999.90;;
1785;SDS011;890;48.158;11.540;2024-01-06T04:20:29;1130.10;;;999.90;;
1785;SDS011;890;48.158;11.540;2024-01-06T04:22:58;1138.10;;;999.90;;
1785;SDS011;890;48.158;11.540;2024-01-06T04:25:24;1090.40;;;996.07;;
1785;SDS011;890;48.158;11.540;2024-01-06T04:27:51;1184.57;;;999.90;;
1785;SDS011;890;48.158;11.540;2024-01-06T04:30:17;1233.83;;;999.90;;
1785;SDS011;890;48.158;11.540;2024-01-06T04:32:44;1190.20;;;999.90;;
1785;SDS011;890;48.158;11.540;2024-01-06T04:35:09;1190.50;;;999.90;;
1785;SDS011;890;48.158;11.540;2024-01-06T04:37:35;1285.63;;;999.90;;
1785;SDS011;890;48.158;11.540;2024-01-06T04:40:02;1285.67;;;999.90;;
1785;SDS011;890;48.158;11.540;2024-01-06T04:42:28;1371.13;;;999.90;;
1785;SDS011;890;48.158;11.540;2024-01-06T04:44:54;1378.60;;;999.90;;
1785;SDS011;890;48.158;11.540;2024-01-06T04:47:20;1385.80;;;999.90;;
1785;SDS011;890;48.158;11.540;2024-01-06T04:49:45;1368.40;;;999.90;;
1785;SDS011;890;48.158;11.540;2024-01-06T04:52:12;1414.43;;;999.90;;
1785;SDS011;890;48.158;11.540;2024-01-06T04:54:38;1419.40;;;999.90;;
1785;SDS011;890;48.158;11.540;2024-01-06T04:57:03;1367.77;;;999.90;;
1785;SDS011;890;48.158;11.540;2024-01-06T04:59:30;1420.90;;;999.90;;
1785;SDS011;890;48.158;11.540;2024-01-06T05:01:58;1432.00;;;999.90;;
1785;SDS011;890;48.158;11.540;2024-01-06T05:04:24;1417.03;;;999.90;;
1785;SDS011;890;48.158;11.540;2024-01-06T05:06:51;1439.50;;;999.90;;
1785;SDS011;890;48.158;11.540;2024-01-06T05:09:17;1424.70;;;999.90;;
1785;SDS011;890;48.158;11.540;2024-01-06T05:11:43;1473.63;;;999.90;;
1785;SDS011;890;48.158;11.540;2024-01-06T05:14:11;1450.03;;;999.90;;
1785;SDS011;890;48.158;11.540;2024-01-06T05:16:36;1447.10;;;999.90;;
1785;SDS011;890;48.158;11.540;2024-01-06T05:19:02;1331.73;;;999.90;;
1785;SDS011;890;48.158;11.540;2024-01-06T05:21:28;1452.70;;;999.90;;
1785;SDS011;890;48.158;11.540;2024-01-06T05:23:55;1445.07;;;999.90;;
1785;SDS011;890;48.158;11.540;2024-01-06T05:26:21;1410.60;;;999.90;;
1785;SDS011;890;48.158;11.540;2024-01-06T05:28:49;1401.53;;;999.90;;
1785;SDS011;890;48.158;11.540;2024-01-06T05:31:16;1438.97;;;999.90;;
1785;SDS011;890;48.158;11.540;2024-01-06T05:33:45;1441.70;;;999.90;;
1785;SDS011;890;48.158;11.540;2024-01-06T05:36:11;1403.73;;;999.90;;
1785;SDS011;890;48.158;11.540;2024-01-06T05:38:36;1415.77;;;999.90;;
1785;SDS011;890;48.158;11.540;2024-01-06T05:41:02;1447.33;;;999.90;;
1785;SDS011;890;48.158;11.540;2024-01-06T05:43:28;1411.30;;;999.90;;
1785;SDS011;890;48.158;11.540;2024-01-06T05:45:54;1439.77;;;999.90;;
1785;SDS011;890;48.158;11.540;2024-01-06T05:48:19;1337.80;;;999.90;;
1785;SDS011;890;48.158;11.540;2024-01-06T05:50:45;1433.70;;;999.90;;
1785;SDS011;890;48.158;11.540;2024-01-06T05:53:11;1212.60;;;999.90;;
1785;SDS011;890;48.158;11.540;2024-01-06T05:55:40;1420.53;;;999.90;;
1785;SDS011;890;48.158;11.540;2024-01-06T05:58:08;1366.35;;;999.90;;
1785;SDS011;890;48.158;11.540;2024-01-06T06:00:34;1390.78;;;999.90;;
1785;SDS011;890;48.158;11.540;2024-01-06T06:02:59;1359.80;;;999.90;;
1785;SDS011;890;48.158;11.540;2024-01-06T06:05:25;1386.57;;;999.90;;
1785;SDS011;890;48.158;11.540;2024-01-06T06:07:51;1393.93;;;999.90;;
1785;SDS011;890;48.158;11.540;2024-01-06T06:10:17;1450.63;;;999.90;;
1785;SDS011;890;48.158;11.540;2024-01-06T06:12:44;1454.43;;;999.90;;
1785;SDS011;890;48.158;11.540;2024-01-06T06:15:10;1469.60;;;999.90;;
1785;SDS011;890;48.158;11.540;2024-01-06T06:17:35;1461.13;;;999.90;;
1785;SDS011;890;48.158;11.540;2024-01-06T06:20:01;1465.63;;;999.90;;
1785;SDS011;890;48.158;11.540;2024-01-06T06:22:28;1476.47;;;999.90;;
1785;SDS011;890;48.158;11.540;2024-01-06T06:24:57;1481.43;;;999.90;;
1785;SDS011;890;48.158;11.540;2024-01-06T06:27:26;1493.93;;;999.90;;
1785;SDS011;890;48.158;11.540;2024-01-06T06:29:52;1480.43;;;999.90;;
1785;SDS011;890;48.158;11.540;2024-01-06T06:32:19;1291.33;;;999.90;;
1785;SDS011;890;48.158;11.540;2024-01-06T06:34:44;1453.63;;;999.90;;
1785;SDS011;890;48.158;11.540;2024-01-06T06:37:10;1435.60;;;999.90;;
1785;SDS011;890;48.158;11.540;2024-01-06T06:39:36;1464.50;;;999.90;;
1785;SDS011;890;48.158;11.540;2024-01-06T06:42:02;1437.67;;;999.90;;
1785;SDS011;890;48.158;11.540;2024-01-06T06:44:29;1512.95;;;999.90;;
1785;SDS011;890;48.158;11.540;2024-01-06T06:46:55;1507.13;;;999.90;;
1785;SDS011;890;48.158;11.540;2024-01-06T06:49:21;1494.60;;;999.90;;
1785;SDS011;890;48.158;11.540;2024-01-06T06:51:46;1327.93;;;999.90;;
1785;SDS011;890;48.158;11.540;2024-01-06T06:54:13;1458.85;;;999.90;;
1785;SDS011;890;48.158;11.540;2024-01-06T06:56:40;1344.68;;;999.90;;
1785;SDS011;890;48.158;11.540;2024-01-06T06:59:09;1488.63;;;999.90;;
1785;SDS011;890;48.158;11.540;2024-01-06T07:01:35;1436.70;;;999.90;;
1785;SDS011;890;48.158;11.540;2024-01-06T07:04:02;1411.88;;;999.90;;
1785;SDS011;890;48.158;11.540;2024-01-06T07:06:28;1403.38;;;999.90;;
1785;SDS011;890;48.158;11.540;2024-01-06T07:08:54;1448.32;;;999.90;;
1785;SDS011;890;48.158;11.540;2024-01-06T07:11:21;1391.50;;;999.90;;
1785;SDS011;890;48.158;11.540;2024-01-06T07:13:47;1366.37;;;999.90;;
1785;SDS011;890;48.158;11.540;2024-01-06T07:16:14;1353.13;;;999.90;;
1785;SDS011;890;48.158;11.540;2024-01-06T07:18:40;1402.83;;;999.90;;
1785;SDS011;890;48.158;11.540;2024-01-06T07:21:06;1407.65;;;999.90;;
1785;SDS011;890;48.158;11.540;2024-01-06T07:23:32;1370.05;;;999.90;;
1785;SDS011;890;48.158;11.540;2024-01-06T07:25:58;1414.13;;;999.90;;
1785;SDS011;890;48.158;11.540;2024-01-06T07:28:24;1367.67;;;999.90;;
1785;SDS011;890;48.158;11.540;2024-01-06T07:30:50;1364.33;;;999.90;;
1785;SDS011;890;48.158;11.540;2024-01-06T07:33:15;1375.40;;;999.90;;
1785;SDS011;890;48.158;11.540;2024-01-06T07:35:41;1415.37;;;999.90;;
1785;SDS011;890;48.158;11.540;2024-01-06T07:38:11;1450.50;;;999.90;;
1785;SDS011;890;48.158;11.540;2024-01-06T07:40:37;1392.93;;;999.90;;
1785;SDS011;890;48.158;11.540;2024-01-06T07:43:03;1340.27;;;999.90;;
1785;SDS011;890;48.158;11.540;2024-01-06T07:45:30;1395.40;;;999.90;;
1785;SDS011;890;48.158;11.540;2024-01-06T07:48:00;1440.57;;;999.90;;
1785;SDS011;890;48.158;11.540;2024-01-06T07:50:26;1374.22;;;999.90;;
1785;SDS011;890;48.158;11.540;2024-01-06T07:52:53;1412.28;;;999.90;;
1785;SDS011;890;48.158;11.540;2024-01-06T07:55:18;1383.47;;;999.90;;
1785;SDS011;890;48.158;11.540;2024-01-06T07:57:45;1280.17;;;999.90;;
1785;SDS011;890;48.158;11.540;2024-01-06T08:00:11;1111.50;;;975.90;;
1785;SDS011;890;48.158;11.540;2024-01-06T08:02:41;1214.57;;;999.90;;
1785;SDS011;890;48.158;11.540;2024-01-06T08:05:07;1194.73;;;999.90;;
1785;SDS011;890;48.158;11.540;2024-01-06T08:07:33;1475.60;;;999.90;;
1785;SDS011;890;48.158;11.540;2024-01-06T08:09:59;1431.87;;;999.90;;
1785;SDS011;890;48.158;11.540;2024-01-06T08:12:26;1327.43;;;999.90;;
1785;SDS011;890;48.158;11.540;2024-01-06T08:14:52;1285.32;;;999.90;;
1785;SDS011;890;48.158;11.540;2024-01-06T08:17:18;1302.23;;;999.90;;
1785;SDS011;890;48.158;11.540;2024-01-06T08:19:44;1475.53;;;999.90;;
1785;SDS011;890;48.158;11.540;2024-01-06T08:22:13;1239.33;;;999.90;;
1785;SDS011;890;48.158;11.540;2024-01-06T08:24:38;1224.13;;;999.90;;
1785;SDS011;890;48.158;11.540;2024-01-06T08:27:04;1288.30;;;999.90;;
1785;SDS011;890;48.158;11.540;2024-01-06T08:29:30;952.73;;;862.03;;
1785;SDS011;890;48.158;11.540;2024-01-06T08:31:56;1195.53;;;999.90;;
1785;SDS011;890;48.158;11.540;2024-01-06T08:34:23;966.20;;;886.70;;
1785;SDS011;890;48.158;11.540;2024-01-06T08:36:48;579.80;;;513.27;;
1785;SDS011;890;48.158;11.540;2024-01-06T08:39:14;746.13;;;678.00;;
1785;SDS011;890;48.158;11.540;2024-01-06T08:41:40;1383.70;;;999.90;;
1785;SDS011;890;48.158;11.540;2024-01-06T08:44:06;1387.93;;;999.90;;
1785;SDS011;890;48.158;11.540;2024-01-06T08:46:31;1403.77;;;999.90;;
1785;SDS011;890;48.158;11.540;2024-01-06T08:48:57;1320.37;;;999.90;;
1785;SDS011;890;48.158;11.540;2024-01-06T08:51:22;1397.67;;;999.90;;
1785;SDS011;890;48.158;11.540;2024-01-06T08:53:49;1378.32;;;999.90;;
1785;SDS011;890;48.158;11.540;2024-01-06T08:56:14;1193.93;;;999.90;;
1785;SDS011;890;48.158;11.540;2024-01-06T08:58:42;1167.70;;;999.90;;
1785;SDS011;890;48.158;11.540;2024-01-06T09:01:08;1256.93;;;999.90;;
1785;SDS011;890;48.158;11.540;2024-01-06T09:03:34;1102.77;;;968.03;;
1785;SDS011;890;48.158;11.540;2024-01-06T09:06:00;1108.83;;;999.90;;
1785;SDS011;890;48.158;11.540;2024-01-06T09:08:25;1329.53;;;999.90;;
1785;SDS011;890;48.158;11.540;2024-01-06T09:10:51;1340.43;;;999.90;;
1785;SDS011;890;48.158;11.540;2024-01-06T09:13:20;875.10;;;794.05;;
1785;SDS011;890;48.158;11.540;2024-01-06T09:15:47;1338.65;;;999.90;;
1785;SDS011;890;48.158;11.540;2024-01-06T09:18:12;1418.70;;;999.90;;
1785;SDS011;890;48.158;11.540;2024-01-06T09:20:38;1417.97;;;999.90;;
1785;SDS011;890;48.158;11.540;2024-01-06T09:23:04;1400.43;;;999.90;;
1785;SDS011;890;48.158;11.540;2024-01-06T09:25:29;1197.73;;;999.90;;
1785;SDS011;890;48.158;11.540;2024-01-06T09:27:57;1460.60;;;999.90;;
1785;SDS011;890;48.158;11.540;2024-01-06T09:30:23;1271.27;;;999.90;;
1785;SDS011;890;48.158;11.540;2024-01-06T09:32:50;1173.20;;;999.90;;
1785;SDS011;890;48.158;11.540;2024-01-06T09:35:15;1119.13;;;994.77;;
1785;SDS011;890;48.158;11.540;2024-01-06T09:37:41;1201.53;;;999.90;;
1785;SDS011;890;48.158;11.540;2024-01-06T09:40:08;1413.20;;;999.90;;
1785;SDS011;890;48.158;11.540;2024-01-06T09:42:38;1170.17;;;999.90;;
1785;SDS011;890;48.158;11.540;2024-01-06T09:45:04;1480.17;;;999.90;;
1785;SDS011;890;48.158;11.540;2024-01-06T09:47:30;1520.97;;;999.90;;
1785;SDS011;890;48.158;11.540;2024-01-06T09:49:59;1474.93;;;999.90;;
1785;SDS011;890;48.158;11.540;2024-01-06T09:52:28;1160.50;;;999.90;;
1785;SDS011;890;48.158;11.540;2024-01-06T09:55:01;1108.30;;;991.20;;
1785;SDS011;890;48.158;11.540;2024-01-06T09:57:30;1094.97;;;999.90;;
1785;SDS011;890;48.158;11.540;2024-01-06T09:59:57;1344.77;;;999.90;;
1785;SDS011;890;48.158;11.540;2024-01-06T10:02:24;1208.83;;;999.90;;
1785;SDS011;890;48.158;11.540;2024-01-06T10:04:50;1227.37;;;999.90;;
1785;SDS011;890;48.158;11.540;2024-01-06T10:07:16;1122.13;;;999.90;;
1785;SDS011;890;48.158;11.540;2024-01-06T10:09:42;1318.43;;;999.90;;
1785;SDS011;890;48.158;11.540;2024-01-06T10:12:08;1404.33;;;999.90;;
1785;SDS011;890;48.158;11.540;2024-01-06T10:14:34;1360.77;;;999.90;;
1785;SDS011;890;48.158;11.540;2024-01-06T10:17:00;1200.47;;;999.90;;
1785;SDS011;890;48.158;11.540;2024-01-06T10:19:26;1203.13;;;999.90;;
1785;SDS011;890;48.158;11.540;2024-01-06T10:21:52;1269.07;;;999.90;;
1785;SDS011;890;48.158;11.540;2024-01-06T10:24:18;1337.23;;;999.90;;
1785;SDS011;890;48.158;11.540;2024-01-06T10:26:46;1447.23;;;999.90;;
1785;SDS011;890;48.158;11.540;2024-01-06T10:29:13;1409.80;;;999.90;;
1785;SDS011;890;48.158;11.540;2024-01-06T10:31:40;1180.57;;;999.90;;
1785;SDS011;890;48.158;11.540;2024-01-06T10:34:06;1441.77;;;999.90;;
1785;SDS011;890;48.158;11.540;2024-01-06T10:36:34;1371.83;;;999.90;;
1785;SDS011;890;48.158;11.540;2024-01-06T10:39:02;1366.00;;;999.90;;
1785;SDS011;890;48.158;11.540;2024-01-06T10:41:28;1395.37;;;999.90;;
1785;SDS011;890;48.158;11.540;2024-01-06T10:43:55;1330.83;;;999.90;;
1785;SDS011;890;48.158;11.540;2024-01-06T10:46:26;1235.30;;;999.90;;
1785;SDS011;890;48.158;11.540;2024-01-06T10:48:55;1381.73;;;999.90;;
1785;SDS011;890;48.158;11.540;2024-01-06T10:51:23;1450.63;;;999.90;;
1785;SDS011;890;48.158;11.540;2024-01-06T10:53:51;1463.80;;;999.90;;
1785;SDS011;890;48.158;11.540;2024-01-06T10:56:18;1225.57;;;999.90;;
1785;SDS011;890;48.158;11.540;2024-01-06T10:58:46;1191.73;;;999.90;;
1785;SDS011;890;48.158;11.540;2024-01-06T11:01:14;1420.13;;;999.90;;
1785;SDS011;890;48.158;11.540;2024-01-06T11:03:46;1403.17;;;999.90;;
1785;SDS011;890;48.158;11.540;2024-01-06T11:06:14;1431.73;;;999.90;;
1785;SDS011;890;48.158;11.540;2024-01-06T11:08:51;1440.20;;;999.90;;
1785;SDS011;890;48.158;11.540;2024-01-06T11:11:24;1467.03;;;999.90;;
1785;SDS011;890;48.158;11.540;2024-01-06T11:13:51;1471.17;;;999.90;;
1785;SDS011;890;48.158;11.540;2024-01-06T11:16:37;1184.57;;;999.90;;
1785;SDS011;890;48.158;11.540;2024-01-06T11:19:03;1471.57;;;999.90;;
1785;SDS011;890;48.158;11.540;2024-01-06T11:21:48;1473.30;;;999.90;;
1785;SDS011;890;48.158;11.540;2024-01-06T11:24:15;1484.60;;;999.90;;
1785;SDS011;890;48.158;11.540;2024-01-06T11:27:02;1382.90;;;999.90;;
1785;SDS011;890;48.158;11.540;2024-01-06T11:29:28;1374.93;;;999.90;;
1785;SDS011;890;48.158;11.540;2024-01-06T11:34:47;1031.23;;;954.13;;
1785;SDS011;890;48.158;11.540;2024-01-06T11:37:18;702.60;;;640.23;;
1785;SDS011;890;48.158;11.540;2024-01-06T11:40:03;813.70;;;757.10;;
1785;SDS011;890;48.158;11.540;2024-01-06T11:42:36;1019.20;;;928.73;;
1785;SDS011;890;48.158;11.540;2024-01-06T11:45:02;806.97;;;734.43;;
1785;SDS011;890;48.158;11.540;2024-01-06T11:47:33;877.97;;;813.70;;
1785;SDS011;890;48.158;11.540;2024-01-06T11:49:59;802.20;;;734.80;;
1785;SDS011;890;48.158;11.540;2024-01-06T11:52:31;595.17;;;543.80;;
1785;SDS011;890;48.158;11.540;2024-01-06T11:55:00;718.83;;;659.97;;
1785;SDS011;890;48.158;11.540;2024-01-06T11:57:26;551.77;;;506.13;;
1785;SDS011;890;48.158;11.540;2024-01-06T11:59:52;660.30;;;606.73;;
1785;SDS011;890;48.158;11.540;2024-01-06T12:02:18;759.47;;;695.67;;
1785;SDS011;890;48.158;11.540;2024-01-06T12:04:48;543.23;;;499.87;;
1785;SDS011;890;48.158;11.540;2024-01-06T12:07:16;608.67;;;560.20;;
1785;SDS011;890;48.158;11.540;2024-01-06T12:09:42;689.87;;;633.37;;
1785;SDS011;890;48.158;11.540;2024-01-06T12:12:09;906.30;;;839.97;;
1785;SDS011;890;48.158;11.540;2024-01-06T12:14:36;1114.63;;;999.90;;
1785;SDS011;890;48.158;11.540;2024-01-06T12:17:01;1043.57;;;952.07;;
1785;SDS011;890;48.158;11.540;2024-01-06T12:19:30;920.50;;;852.17;;
1785;SDS011;890;48.158;11.540;2024-01-06T12:21:58;1010.87;;;919.80;;
1785;SDS011;890;48.158;11.540;2024-01-06T12:24:24;1486.33;;;999.90;;
1785;SDS011;890;48.158;11.540;2024-01-06T12:26:52;1415.77;;;999.90;;
1785;SDS011;890;48.158;11.540;2024-01-06T12:29:18;1278.33;;;999.90;;
1785;SDS011;890;48.158;11.540;2024-01-06T12:31:44;1474.23;;;999.90;;
1785;SDS011;890;48.158;11.540;2024-01-06T12:34:11;1484.43;;;999.90;;
1785;SDS011;890;48.158;11.540;2024-01-06T12:36:37;832.47;;;762.43;;
1785;SDS011;890;48.158;11.540;2024-01-06T12:39:04;1449.37;;;999.90;;
1785;SDS011;890;48.158;11.540;2024-01-06T12:41:30;1491.67;;;999.90;;
1785;SDS011;890;48.158;11.540;2024-01-06T12:43:58;1275.80;;;999.90;;
1785;SDS011;890;48.158;11.540;2024-01-06T12:46:27;565.73;;;504.33;;
1785;SDS011;890;48.158;11.540;2024-01-06T12:48:53;1079.43;;;979.77;;
1785;SDS011;890;48.158;11.540;2024-01-06T12:51:18;1158.37;;;999.90;;
1785;SDS011;890;48.158;11.540;2024-01-06T12:53:44;1129.50;;;997.53;;
1785;SDS011;890;48.158;11.540;2024-01-06T12:56:10;1196.10;;;999.90;;
1785;SDS011;890;48.158;11.540;2024-01-06T12:58:36;1166.03;;;999.90;;
1785;SDS011;890;48.158;11.540;2024-01-06T13:01:02;1389.33;;;999.90;;
1785;SDS011;890;48.158;11.540;2024-01-06T13:03:28;1379.03;;;999.90;;
1785;SDS011;890;48.158;11.540;2024-01-06T13:05:54;1415.13;;;999.90;;
1785;SDS011;890;48.158;11.540;2024-01-06T13:08:19;1247.97;;;999.90;;
1785;SDS011;890;48.158;11.540;2024-01-06T13:10:46;1461.20;;;999.90;;
1785;SDS011;890;48.158;11.540;2024-01-06T13:13:11;1221.53;;;999.90;;
1785;SDS011;890;48.158;11.540;2024-01-06T13:15:37;992.50;;;911.83;;
1785;SDS011;890;48.158;11.540;2024-01-06T13:18:03;1110.37;;;999.90;;
1785;SDS011;890;48.158;11.540;2024-01-06T13:20:30;1440.00;;;999.90;;
1785;SDS011;890;48.158;11.540;2024-01-06T13:22:57;1313.33;;;999.90;;
1785;SDS011;890;48.158;11.540;2024-01-06T13:25:26;1232.67;;;999.90;;
1785;SDS011;890;48.158;11.540;2024-01-06T13:27:53;1091.73;;;998.97;;
1785;SDS011;890;48.158;11.540;2024-01-06T13:30:18;1437.07;;;999.90;;
1785;SDS011;890;48.158;11.540;2024-01-06T13:32:45;1135.23;;;999.90;;
1785;SDS011;890;48.158;11.540;2024-01-06T13:35:11;1092.77;;;989.33;;
1785;SDS011;890;48.158;11.540;2024-01-06T13:37:37;1156.23;;;999.90;;
1785;SDS011;890;48.158;11.540;2024-01-06T13:40:04;1448.63;;;999.90;;
1785;SDS011;890;48.158;11.540;2024-01-06T13:42:32;1170.53;;;999.90;;
1785;SDS011;890;48.158;11.540;2024-01-06T13:44:58;1170.17;;;999.90;;
1785;SDS011;890;48.158;11.540;2024-01-06T13:47:28;1037.53;;;956.40;;
1785;SDS011;890;48.158;11.540;2024-01-06T13:49:55;1134.23;;;999.90;;
1785;SDS011;890;48.158;11.540;2024-01-06T13:52:21;1040.30;;;933.73;;
1785;SDS011;890;48.158;11.540;2024-01-06T13:54:47;985.47;;;905.63;;
1785;SDS011;890;48.158;11.540;2024-01-06T13:57:13;937.33;;;861.73;;
1785;SDS011;890;48.158;11.540;2024-01-06T13:59:39;1435.87;;;999.90;;
1785;SDS011;890;48.158;11.540;2024-01-06T14:02:08;844.40;;;772.10;;
1785;SDS011;890;48.158;11.540;2024-01-06T14:04:34;996.33;;;910.73;;
1785;SDS011;890;48.158;11.540;2024-01-06T14:07:00;968.13;;;890.63;;
1785;SDS011;890;48.158;11.540;2024-01-06T14:09:30;861.87;;;788.17;;
1785;SDS011;890;48.158;11.540;2024-01-06T14:11:55;677.87;;;614.03;;